sensor_id;sensor_type;location;lat;lon;timestamp;P1;durP1;ratioP1;P2;durP2;ratioP2
82630;SDS011;72301;52.376;9.738;2023-11-19T00:01:03;9.80;;;3.72;;
82630;SDS011;72301;52.376;9.738;2023-11-19T00:03:30;8.73;;;3.88;;
82630;SDS011;72301;52.376;9.738;2023-11-19T00:05:56;7.97;;;3.55;;
82630;SDS011;72301;52.376;9.738;2023-11-19T00:08:21;10.20;;;4.03;;
82630;SDS011;72301;52.376;9.738;2023-11-19T00:10:46;9.20;;;3.60;;
82630;SDS011;72301;52.376;9.738;2023-11-19T00:13:12;8.23;;;3.58;;
82630;SDS011;72301;52.376;9.738;2023-11-19T00:15:41;9.52;;;3.92;;
82630;SDS011;72301;52.376;9.738;2023-11-19T00:18:07;9.68;;;3.47;;
82630;SDS011;72301;52.376;9.738;2023-11-19T00:20:35;9.13;;;4.20;;
82630;SDS011;72301;52.376;9.738;2023-11-19T00:23:01;8.93;;;3.95;;
82630;SDS011;72301;52.376;9.738;2023-11-19T00:25:27;9.23;;;3.95;;
82630;SDS011;72301;52.376;9.738;2023-11-19T00:27:53;10.02;;;3.53;;
82630;SDS011;72301;52.376;9.738;2023-11-19T00:30:19;10.20;;;4.25;;
82630;SDS011;72301;52.376;9.738;2023-11-19T00:32:44;9.23;;;4.10;;
82630;SDS011;72301;52.376;9.738;2023-11-19T00:35:10;8.18;;;3.50;;
82630;SDS011;72301;52.376;9.738;2023-11-19T00:37:36;8.60;;;3.55;;
82630;SDS011;72301;52.376;9.738;2023-11-19T00:40:22;9.10;;;3.72;;
82630;SDS011;72301;52.376;9.738;2023-11-19T00:55:20;8.75;;;3.92;;
82630;SDS011;72301;52.376;9.738;2023-11-19T00:57:45;8.48;;;3.40;;
82630;SDS011;72301;52.376;9.738;2023-11-19T01:00:11;7.75;;;3.28;;
82630;SDS011;72301;52.376;9.738;2023-11-19T01:02:44;7.68;;;3.35;;
82630;SDS011;72301;52.376;9.738;2023-11-19T01:08:10;8.95;;;3.50;;
82630;SDS011;72301;52.376;9.738;2023-11-19T01:10:41;8.15;;;3.20;;
82630;SDS011;72301;52.376;9.738;2023-11-19T01:13:10;7.95;;;3.08;;
82630;SDS011;72301;52.376;9.738;2023-11-19T01:15:36;8.93;;;3.85;;
82630;SDS011;72301;52.376;9.738;2023-11-19T01:18:02;7.43;;;3.17;;
82630;SDS011;72301;52.376;9.738;2023-11-19T01:20:36;7.32;;;3.15;;
82630;SDS011;72301;52.376;9.738;2023-11-19T01:23:12;9.07;;;3.75;;
82630;SDS011;72301;52.376;9.738;2023-11-19T01:25:38;9.32;;;3.80;;
82630;SDS011;72301;52.376;9.738;2023-11-19T01:28:03;7.30;;;3.08;;
82630;SDS011;72301;52.376;9.738;2023-11-19T01:30:29;8.88;;;4.13;;
82630;SDS011;72301;52.376;9.738;2023-11-19T01:32:55;7.72;;;3.17;;
82630;SDS011;72301;52.376;9.738;2023-11-19T01:35:21;8.85;;;3.67;;
82630;SDS011;72301;52.376;9.738;2023-11-19T01:38:13;8.77;;;3.78;;
82630;SDS011;72301;52.376;9.738;2023-11-19T01:46:52;7.57;;;3.17;;
82630;SDS011;72301;52.376;9.738;2023-11-19T01:49:18;8.63;;;3.55;;
82630;SDS011;72301;52.376;9.738;2023-11-19T01:51:44;7.35;;;2.83;;
82630;SDS011;72301;52.376;9.738;2023-11-19T01:54:11;7.35;;;3.33;;
82630;SDS011;72301;52.376;9.738;2023-11-19T01:56:37;8.60;;;3.85;;
82630;SDS011;72301;52.376;9.738;2023-11-19T02:05:39;7.38;;;3.30;;
82630;SDS011;72301;52.376;9.738;2023-11-19T02:08:08;7.80;;;3.08;;
82630;SDS011;72301;52.376;9.738;2023-11-19T02:10:38;7.55;;;3.60;;
82630;SDS011;72301;52.376;9.738;2023-11-19T02:13:43;7.60;;;3.22;;
82630;SDS011;72301;52.376;9.738;2023-11-19T02:16:12;9.43;;;2.97;;
82630;SDS011;72301;52.376;9.738;2023-11-19T02:18:37;7.85;;;3.28;;
82630;SDS011;72301;52.376;9.738;2023-11-19T02:21:13;7.05;;;2.72;;
82630;SDS011;72301;52.376;9.738;2023-11-19T02:23:40;7.63;;;3.10;;
82630;SDS011;72301;52.376;9.738;2023-11-19T02:26:10;9.50;;;3.47;;
82630;SDS011;72301;52.376;9.738;2023-11-19T02:28:39;8.13;;;3.13;;
82630;SDS011;72301;52.376;9.738;2023-11-19T02:31:05;7.40;;;2.90;;
82630;SDS011;72301;52.376;9.738;2023-11-19T02:34:10;6.60;;;3.22;;
82630;SDS011;72301;52.376;9.738;2023-11-19T02:36:39;7.93;;;3.28;;
82630;SDS011;72301;52.376;9.738;2023-11-19T02:39:12;6.45;;;2.83;;
82630;SDS011;72301;52.376;9.738;2023-11-19T02:41:38;7.93;;;2.90;;
82630;SDS011;72301;52.376;9.738;2023-11-19T02:44:05;8.13;;;2.90;;
82630;SDS011;72301;52.376;9.738;2023-11-19T02:46:31;7.32;;;3.15;;
82630;SDS011;72301;52.376;9.738;2023-11-19T02:48:57;7.75;;;3.22;;
82630;SDS011;72301;52.376;9.738;2023-11-19T02:51:25;7.30;;;2.85;;
82630;SDS011;72301;52.376;9.738;2023-11-19T02:54:01;7.63;;;3.00;;
82630;SDS011;72301;52.376;9.738;2023-11-19T02:56:28;7.85;;;2.97;;
82630;SDS011;72301;52.376;9.738;2023-11-19T03:01:31;7.55;;;3.00;;
82630;SDS011;72301;52.376;9.738;2023-11-19T03:04:01;7.68;;;2.92;;
82630;SDS011;72301;52.376;9.738;2023-11-19T03:06:27;8.13;;;2.75;;
82630;SDS011;72301;52.376;9.738;2023-11-19T03:08:57;6.72;;;2.90;;
82630;SDS011;72301;52.376;9.738;2023-11-19T03:11:22;7.75;;;2.75;;
82630;SDS011;72301;52.376;9.738;2023-11-19T03:13:47;7.40;;;3.00;;
82630;SDS011;72301;52.376;9.738;2023-11-19T03:16:13;7.45;;;3.00;;
82630;SDS011;72301;52.376;9.738;2023-11-19T03:18:39;6.43;;;2.47;;
82630;SDS011;72301;52.376;9.738;2023-11-19T03:21:07;7.43;;;3.00;;
82630;SDS011;72301;52.376;9.738;2023-11-19T03:23:36;7.63;;;2.63;;
82630;SDS011;72301;52.376;9.738;2023-11-19T03:26:05;6.85;;;2.75;;
82630;SDS011;72301;52.376;9.738;2023-11-19T03:28:35;7.40;;;2.78;;
82630;SDS011;72301;52.376;9.738;2023-11-19T03:33:51;7.30;;;2.83;;
82630;SDS011;72301;52.376;9.738;2023-11-19T03:36:16;6.75;;;2.67;;
82630;SDS011;72301;52.376;9.738;2023-11-19T03:42:01;6.78;;;2.67;;
82630;SDS011;72301;52.376;9.738;2023-11-19T03:44:28;6.75;;;2.20;;
82630;SDS011;72301;52.376;9.738;2023-11-19T03:50:03;6.60;;;2.78;;
82630;SDS011;72301;52.376;9.738;2023-11-19T03:52:30;6.32;;;2.90;;
82630;SDS011;72301;52.376;9.738;2023-11-19T03:54:55;7.30;;;2.92;;
82630;SDS011;72301;52.376;9.738;2023-11-19T03:57:22;6.85;;;2.55;;
82630;SDS011;72301;52.376;9.738;2023-11-19T03:59:47;6.95;;;2.70;;
82630;SDS011;72301;52.376;9.738;2023-11-19T04:05:02;6.75;;;2.60;;
82630;SDS011;72301;52.376;9.738;2023-11-19T04:07:30;6.70;;;2.38;;
82630;SDS011;72301;52.376;9.738;2023-11-19T04:09:56;6.10;;;2.30;;
82630;SDS011;72301;52.376;9.738;2023-11-19T04:12:22;7.38;;;2.97;;
82630;SDS011;72301;52.376;9.738;2023-11-19T04:15:01;6.57;;;2.60;;
82630;SDS011;72301;52.376;9.738;2023-11-19T04:17:27;6.22;;;2.30;;
82630;SDS011;72301;52.376;9.738;2023-11-19T04:22:35;6.47;;;2.30;;
82630;SDS011;72301;52.376;9.738;2023-11-19T04:25:01;6.15;;;2.30;;
82630;SDS011;72301;52.376;9.738;2023-11-19T04:27:26;6.63;;;2.88;;
82630;SDS011;72301;52.376;9.738;2023-11-19T04:29:52;6.72;;;2.47;;
82630;SDS011;72301;52.376;9.738;2023-11-19T04:32:25;6.38;;;2.50;;
82630;SDS011;72301;52.376;9.738;2023-11-19T04:34:53;7.38;;;2.75;;
82630;SDS011;72301;52.376;9.738;2023-11-19T04:37:20;6.65;;;2.60;;
82630;SDS011;72301;52.376;9.738;2023-11-19T04:39:48;6.32;;;2.83;;
82630;SDS011;72301;52.376;9.738;2023-11-19T04:45:10;6.20;;;2.33;;
82630;SDS011;72301;52.376;9.738;2023-11-19T04:47:36;6.03;;;2.20;;
82630;SDS011;72301;52.376;9.738;2023-11-19T04:50:02;6.47;;;2.40;;
82630;SDS011;72301;52.376;9.738;2023-11-19T04:52:31;6.88;;;2.45;;
82630;SDS011;72301;52.376;9.738;2023-11-19T04:54:56;6.53;;;2.65;;
82630;SDS011;72301;52.376;9.738;2023-11-19T04:57:22;7.30;;;2.33;;
82630;SDS011;72301;52.376;9.738;2023-11-19T04:59:47;6.60;;;2.40;;
82630;SDS011;72301;52.376;9.738;2023-11-19T05:02:13;6.65;;;2.45;;
82630;SDS011;72301;52.376;9.738;2023-11-19T05:04:43;6.72;;;2.40;;
82630;SDS011;72301;52.376;9.738;2023-11-19T05:07:09;6.53;;;2.65;;
82630;SDS011;72301;52.376;9.738;2023-11-19T05:09:35;6.75;;;2.60;;
82630;SDS011;72301;52.376;9.738;2023-11-19T05:12:00;6.07;;;2.60;;
82630;SDS011;72301;52.376;9.738;2023-11-19T05:14:39;6.47;;;3.10;;
82630;SDS011;72301;52.376;9.738;2023-11-19T05:17:04;6.72;;;2.47;;
82630;SDS011;72301;52.376;9.738;2023-11-19T05:19:33;6.75;;;2.70;;
82630;SDS011;72301;52.376;9.738;2023-11-19T05:21:58;6.80;;;2.17;;
82630;SDS011;72301;52.376;9.738;2023-11-19T05:24:23;6.55;;;2.50;;
82630;SDS011;72301;52.376;9.738;2023-11-19T05:26:49;6.60;;;2.50;;
82630;SDS011;72301;52.376;9.738;2023-11-19T05:29:17;6.00;;;2.30;;
82630;SDS011;72301;52.376;9.738;2023-11-19T05:31:43;6.55;;;2.22;;
82630;SDS011;72301;52.376;9.738;2023-11-19T05:34:08;7.75;;;2.33;;
82630;SDS011;72301;52.376;9.738;2023-11-19T05:36:34;6.93;;;2.40;;
82630;SDS011;72301;52.376;9.738;2023-11-19T05:38:59;6.40;;;2.40;;
82630;SDS011;72301;52.376;9.738;2023-11-19T05:41:24;6.23;;;2.30;;
82630;SDS011;72301;52.376;9.738;2023-11-19T05:43:49;6.83;;;2.80;;
82630;SDS011;72301;52.376;9.738;2023-11-19T05:46:15;6.68;;;2.20;;
82630;SDS011;72301;52.376;9.738;2023-11-19T05:48:41;6.53;;;2.35;;
82630;SDS011;72301;52.376;9.738;2023-11-19T05:51:06;6.40;;;2.47;;
82630;SDS011;72301;52.376;9.738;2023-11-19T05:53:32;6.33;;;2.17;;
82630;SDS011;72301;52.376;9.738;2023-11-19T05:55:57;6.47;;;2.10;;
82630;SDS011;72301;52.376;9.738;2023-11-19T05:58:23;7.07;;;2.30;;
82630;SDS011;72301;52.376;9.738;2023-11-19T06:00:50;6.47;;;3.20;;
82630;SDS011;72301;52.376;9.738;2023-11-19T06:03:16;6.35;;;2.38;;
82630;SDS011;72301;52.376;9.738;2023-11-19T06:05:43;6.60;;;2.22;;
82630;SDS011;72301;52.376;9.738;2023-11-19T06:08:09;5.85;;;2.03;;
82630;SDS011;72301;52.376;9.738;2023-11-19T06:10:34;5.73;;;2.20;;
82630;SDS011;72301;52.376;9.738;2023-11-19T06:13:00;6.78;;;2.40;;
82630;SDS011;72301;52.376;9.738;2023-11-19T06:15:29;7.38;;;2.35;;
82630;SDS011;72301;52.376;9.738;2023-11-19T06:17:55;6.57;;;2.50;;
82630;SDS011;72301;52.376;9.738;2023-11-19T06:20:20;6.57;;;2.23;;
82630;SDS011;72301;52.376;9.738;2023-11-19T06:22:46;5.95;;;2.33;;
82630;SDS011;72301;52.376;9.738;2023-11-19T06:25:11;5.85;;;2.30;;
82630;SDS011;72301;52.376;9.738;2023-11-19T06:27:39;5.93;;;2.10;;
82630;SDS011;72301;52.376;9.738;2023-11-19T06:30:05;6.70;;;2.28;;
82630;SDS011;72301;52.376;9.738;2023-11-19T06:32:31;5.90;;;2.45;;
82630;SDS011;72301;52.376;9.738;2023-11-19T06:34:57;6.80;;;2.20;;
82630;SDS011;72301;52.376;9.738;2023-11-19T06:37:23;5.65;;;2.17;;
82630;SDS011;72301;52.376;9.738;2023-11-19T06:39:48;6.35;;;2.13;;
82630;SDS011;72301;52.376;9.738;2023-11-19T06:42:13;6.57;;;2.40;;
82630;SDS011;72301;52.376;9.738;2023-11-19T06:44:39;6.20;;;2.37;;
82630;SDS011;72301;52.376;9.738;2023-11-19T06:47:04;5.93;;;1.80;;
82630;SDS011;72301;52.376;9.738;2023-11-19T06:49:30;5.63;;;2.00;;
82630;SDS011;72301;52.376;9.738;2023-11-19T06:51:55;5.73;;;2.13;;
82630;SDS011;72301;52.376;9.738;2023-11-19T06:54:21;6.55;;;2.53;;
82630;SDS011;72301;52.376;9.738;2023-11-19T06:56:47;6.27;;;2.00;;
82630;SDS011;72301;52.376;9.738;2023-11-19T06:59:13;7.35;;;2.40;;
82630;SDS011;72301;52.376;9.738;2023-11-19T07:01:39;5.70;;;1.88;;
82630;SDS011;72301;52.376;9.738;2023-11-19T07:04:04;6.17;;;2.40;;
82630;SDS011;72301;52.376;9.738;2023-11-19T07:06:34;5.32;;;2.13;;
82630;SDS011;72301;52.376;9.738;2023-11-19T07:09:00;6.38;;;2.10;;
82630;SDS011;72301;52.376;9.738;2023-11-19T07:11:34;5.95;;;2.00;;
82630;SDS011;72301;52.376;9.738;2023-11-19T07:14:00;6.18;;;2.10;;
82630;SDS011;72301;52.376;9.738;2023-11-19T07:16:25;6.83;;;2.10;;
82630;SDS011;72301;52.376;9.738;2023-11-19T07:18:51;5.63;;;2.00;;
82630;SDS011;72301;52.376;9.738;2023-11-19T07:21:16;5.60;;;2.10;;
82630;SDS011;72301;52.376;9.738;2023-11-19T07:23:42;6.13;;;2.28;;
82630;SDS011;72301;52.376;9.738;2023-11-19T07:26:07;5.95;;;2.40;;
82630;SDS011;72301;52.376;9.738;2023-11-19T07:28:35;6.78;;;2.20;;
82630;SDS011;72301;52.376;9.738;2023-11-19T07:31:01;7.30;;;2.08;;
82630;SDS011;72301;52.376;9.738;2023-11-19T07:33:27;6.03;;;1.88;;
82630;SDS011;72301;52.376;9.738;2023-11-19T07:35:52;5.57;;;2.08;;
82630;SDS011;72301;52.376;9.738;2023-11-19T07:38:17;6.43;;;2.17;;
82630;SDS011;72301;52.376;9.738;2023-11-19T07:40:43;7.38;;;2.30;;
82630;SDS011;72301;52.376;9.738;2023-11-19T07:43:08;7.30;;;2.40;;
82630;SDS011;72301;52.376;9.738;2023-11-19T07:45:33;6.63;;;2.25;;
82630;SDS011;72301;52.376;9.738;2023-11-19T07:47:59;6.70;;;2.10;;
82630;SDS011;72301;52.376;9.738;2023-11-19T07:50:26;7.07;;;2.10;;
82630;SDS011;72301;52.376;9.738;2023-11-19T07:52:51;6.67;;;2.00;;
82630;SDS011;72301;52.376;9.738;2023-11-19T07:55:17;5.40;;;1.83;;
82630;SDS011;72301;52.376;9.738;2023-11-19T07:57:42;6.70;;;2.03;;
82630;SDS011;72301;52.376;9.738;2023-11-19T08:00:07;6.00;;;2.30;;
82630;SDS011;72301;52.376;9.738;2023-11-19T08:02:37;5.25;;;1.98;;
82630;SDS011;72301;52.376;9.738;2023-11-19T08:05:02;5.40;;;1.90;;
82630;SDS011;72301;52.376;9.738;2023-11-19T08:07:28;6.00;;;1.98;;
82630;SDS011;72301;52.376;9.738;2023-11-19T08:09:53;5.93;;;1.87;;
82630;SDS011;72301;52.376;9.738;2023-11-19T08:12:22;7.63;;;2.30;;
82630;SDS011;72301;52.376;9.738;2023-11-19T08:14:47;6.07;;;2.08;;
82630;SDS011;72301;52.376;9.738;2023-11-19T08:17:14;7.10;;;1.98;;
82630;SDS011;72301;52.376;9.738;2023-11-19T08:19:39;7.07;;;2.10;;
82630;SDS011;72301;52.376;9.738;2023-11-19T08:22:04;7.00;;;2.13;;
82630;SDS011;72301;52.376;9.738;2023-11-19T08:24:30;6.17;;;2.67;;
82630;SDS011;72301;52.376;9.738;2023-11-19T08:26:55;5.87;;;1.90;;
82630;SDS011;72301;52.376;9.738;2023-11-19T08:29:20;6.20;;;2.50;;
82630;SDS011;72301;52.376;9.738;2023-11-19T08:31:46;5.78;;;1.85;;
82630;SDS011;72301;52.376;9.738;2023-11-19T08:34:11;6.25;;;2.25;;
82630;SDS011;72301;52.376;9.738;2023-11-19T08:36:37;5.97;;;1.77;;
82630;SDS011;72301;52.376;9.738;2023-11-19T08:39:02;7.13;;;2.13;;
82630;SDS011;72301;52.376;9.738;2023-11-19T08:41:28;6.35;;;2.47;;
82630;SDS011;72301;52.376;9.738;2023-11-19T08:43:53;6.93;;;2.00;;
82630;SDS011;72301;52.376;9.738;2023-11-19T08:46:18;6.00;;;1.73;;
82630;SDS011;72301;52.376;9.738;2023-11-19T08:48:44;7.03;;;2.20;;
82630;SDS011;72301;52.376;9.738;2023-11-19T08:51:10;6.07;;;1.85;;
82630;SDS011;72301;52.376;9.738;2023-11-19T08:53:35;7.65;;;2.05;;
82630;SDS011;72301;52.376;9.738;2023-11-19T08:56:00;7.28;;;2.08;;
82630;SDS011;72301;52.376;9.738;2023-11-19T08:58:27;6.57;;;2.10;;
82630;SDS011;72301;52.376;9.738;2023-11-19T09:00:53;6.67;;;1.80;;
82630;SDS011;72301;52.376;9.738;2023-11-19T09:03:18;7.37;;;2.37;;
82630;SDS011;72301;52.376;9.738;2023-11-19T09:05:43;6.20;;;2.07;;
82630;SDS011;72301;52.376;9.738;2023-11-19T09:08:09;7.25;;;1.95;;
82630;SDS011;72301;52.376;9.738;2023-11-19T09:10:36;6.60;;;1.90;;
82630;SDS011;72301;52.376;9.738;2023-11-19T09:13:01;6.13;;;2.20;;
82630;SDS011;72301;52.376;9.738;2023-11-19T09:15:27;5.25;;;1.70;;
82630;SDS011;72301;52.376;9.738;2023-11-19T09:17:53;7.97;;;2.05;;
82630;SDS011;72301;52.376;9.738;2023-11-19T09:20:18;6.70;;;1.87;;
82630;SDS011;72301;52.376;9.738;2023-11-19T09:22:44;7.40;;;2.00;;
82630;SDS011;72301;52.376;9.738;2023-11-19T09:25:09;5.43;;;1.80;;
82630;SDS011;72301;52.376;9.738;2023-11-19T09:27:35;6.40;;;2.10;;
82630;SDS011;72301;52.376;9.738;2023-11-19T09:30:02;5.63;;;2.00;;
82630;SDS011;72301;52.376;9.738;2023-11-19T09:32:29;6.60;;;2.00;;
82630;SDS011;72301;52.376;9.738;2023-11-19T09:34:54;6.20;;;1.80;;
82630;SDS011;72301;52.376;9.738;2023-11-19T09:37:19;7.73;;;2.10;;
82630;SDS011;72301;52.376;9.738;2023-11-19T09:39:45;6.57;;;1.90;;
82630;SDS011;72301;52.376;9.738;2023-11-19T09:42:10;7.15;;;1.90;;
82630;SDS011;72301;52.376;9.738;2023-11-19T09:44:37;5.65;;;1.92;;
82630;SDS011;72301;52.376;9.738;2023-11-19T09:47:04;8.27;;;2.22;;
82630;SDS011;72301;52.376;9.738;2023-11-19T09:49:29;5.60;;;1.90;;
82630;SDS011;72301;52.376;9.738;2023-11-19T09:51:55;5.38;;;1.85;;
82630;SDS011;72301;52.376;9.738;2023-11-19T09:54:20;6.40;;;1.70;;
82630;SDS011;72301;52.376;9.738;2023-11-19T09:56:46;7.38;;;2.17;;
82630;SDS011;72301;52.376;9.738;2023-11-19T09:59:12;5.63;;;1.75;;
82630;SDS011;72301;52.376;9.738;2023-11-19T10:01:38;7.03;;;2.10;;
82630;SDS011;72301;52.376;9.738;2023-11-19T10:04:03;6.95;;;2.00;;
82630;SDS011;72301;52.376;9.738;2023-11-19T10:06:29;7.28;;;2.05;;
82630;SDS011;72301;52.376;9.738;2023-11-19T10:08:54;4.90;;;1.70;;
82630;SDS011;72301;52.376;9.738;2023-11-19T10:11:20;7.43;;;2.22;;
82630;SDS011;72301;52.376;9.738;2023-11-19T10:13:46;7.80;;;2.45;;
82630;SDS011;72301;52.376;9.738;2023-11-19T10:16:12;6.28;;;2.40;;
82630;SDS011;72301;52.376;9.738;2023-11-19T10:18:47;5.40;;;1.80;;
82630;SDS011;72301;52.376;9.738;2023-11-19T10:26:22;7.10;;;2.30;;
82630;SDS011;72301;52.376;9.738;2023-11-19T10:28:47;6.63;;;1.80;;
82630;SDS011;72301;52.376;9.738;2023-11-19T10:31:13;6.35;;;1.83;;
82630;SDS011;72301;52.376;9.738;2023-11-19T10:33:39;7.25;;;2.20;;
82630;SDS011;72301;52.376;9.738;2023-11-19T10:36:04;6.88;;;2.20;;
82630;SDS011;72301;52.376;9.738;2023-11-19T10:38:30;6.50;;;1.80;;
82630;SDS011;72301;52.376;9.738;2023-11-19T10:40:55;5.53;;;2.00;;
82630;SDS011;72301;52.376;9.738;2023-11-19T10:43:21;6.47;;;1.90;;
82630;SDS011;72301;52.376;9.738;2023-11-19T10:45:50;6.32;;;1.75;;
82630;SDS011;72301;52.376;9.738;2023-11-19T10:48:16;6.20;;;1.70;;
82630;SDS011;72301;52.376;9.738;2023-11-19T10:50:43;7.47;;;1.90;;
82630;SDS011;72301;52.376;9.738;2023-11-19T10:53:10;6.00;;;1.90;;
82630;SDS011;72301;52.376;9.738;2023-11-19T10:55:36;5.68;;;1.88;;
82630;SDS011;72301;52.376;9.738;2023-11-19T10:58:05;6.35;;;1.90;;
82630;SDS011;72301;52.376;9.738;2023-11-19T11:01:06;5.60;;;1.80;;
82630;SDS011;72301;52.376;9.738;2023-11-19T11:03:24;5.00;;;1.75;;
82630;SDS011;72301;52.376;9.738;2023-11-19T11:05:51;7.70;;;2.20;;
82630;SDS011;72301;52.376;9.738;2023-11-19T11:08:18;6.30;;;1.88;;
82630;SDS011;72301;52.376;9.738;2023-11-19T11:13:20;6.45;;;2.33;;
82630;SDS011;72301;52.376;9.738;2023-11-19T11:15:47;7.22;;;2.08;;
82630;SDS011;72301;52.376;9.738;2023-11-19T11:18:13;6.80;;;1.88;;
82630;SDS011;72301;52.376;9.738;2023-11-19T11:20:39;5.95;;;1.70;;
82630;SDS011;72301;52.376;9.738;2023-11-19T11:26:14;6.15;;;1.95;;
82630;SDS011;72301;52.376;9.738;2023-11-19T11:28:49;7.03;;;1.90;;
82630;SDS011;72301;52.376;9.738;2023-11-19T11:31:31;5.20;;;1.77;;
82630;SDS011;72301;52.376;9.738;2023-11-19T11:39:40;7.35;;;1.95;;
82630;SDS011;72301;52.376;9.738;2023-11-19T11:44:59;6.20;;;1.90;;
82630;SDS011;72301;52.376;9.738;2023-11-19T11:53:21;6.30;;;1.90;;
82630;SDS011;72301;52.376;9.738;2023-11-19T11:58:17;7.03;;;1.60;;
82630;SDS011;72301;52.376;9.738;2023-11-19T12:00:43;6.32;;;1.70;;
82630;SDS011;72301;52.376;9.738;2023-11-19T12:03:10;5.18;;;1.70;;
82630;SDS011;72301;52.376;9.738;2023-11-19T12:05:45;6.30;;;2.35;;
82630;SDS011;72301;52.376;9.738;2023-11-19T12:08:12;5.53;;;1.80;;
82630;SDS011;72301;52.376;9.738;2023-11-19T12:10:44;5.25;;;1.55;;
82630;SDS011;72301;52.376;9.738;2023-11-19T12:13:09;6.32;;;1.90;;
82630;SDS011;72301;52.376;9.738;2023-11-19T12:18:21;5.88;;;1.60;;
82630;SDS011;72301;52.376;9.738;2023-11-19T12:20:48;5.80;;;1.42;;
82630;SDS011;72301;52.376;9.738;2023-11-19T12:23:13;5.93;;;1.77;;
82630;SDS011;72301;52.376;9.738;2023-11-19T12:25:39;5.30;;;1.60;;
82630;SDS011;72301;52.376;9.738;2023-11-19T12:28:04;5.97;;;2.20;;
82630;SDS011;72301;52.376;9.738;2023-11-19T12:30:30;5.97;;;1.52;;
82630;SDS011;72301;52.376;9.738;2023-11-19T12:32:56;6.43;;;1.67;;
82630;SDS011;72301;52.376;9.738;2023-11-19T12:35:21;8.13;;;1.92;;
82630;SDS011;72301;52.376;9.738;2023-11-19T12:37:51;8.23;;;2.20;;
82630;SDS011;72301;52.376;9.738;2023-11-19T12:42:46;14.52;;;3.25;;
82630;SDS011;72301;52.376;9.738;2023-11-19T12:45:12;12.05;;;3.22;;
82630;SDS011;72301;52.376;9.738;2023-11-19T12:47:41;15.65;;;3.92;;
82630;SDS011;72301;52.376;9.738;2023-11-19T12:50:12;15.70;;;3.30;;
82630;SDS011;72301;52.376;9.738;2023-11-19T12:52:38;14.52;;;3.10;;
82630;SDS011;72301;52.376;9.738;2023-11-19T12:55:25;15.00;;;3.88;;
82630;SDS011;72301;52.376;9.738;2023-11-19T12:57:51;10.85;;;3.15;;
82630;SDS011;72301;52.376;9.738;2023-11-19T13:00:20;14.80;;;3.10;;
82630;SDS011;72301;52.376;9.738;2023-11-19T13:02:52;13.00;;;3.28;;
82630;SDS011;72301;52.376;9.738;2023-11-19T13:07:57;15.20;;;3.03;;
82630;SDS011;72301;52.376;9.738;2023-11-19T13:10:25;11.23;;;2.35;;
82630;SDS011;72301;52.376;9.738;2023-11-19T13:13:05;12.90;;;2.85;;
82630;SDS011;72301;52.376;9.738;2023-11-19T13:15:33;10.32;;;2.80;;
82630;SDS011;72301;52.376;9.738;2023-11-19T13:17:59;11.35;;;3.05;;
82630;SDS011;72301;52.376;9.738;2023-11-19T13:20:25;14.05;;;3.10;;
82630;SDS011;72301;52.376;9.738;2023-11-19T13:22:57;13.40;;;2.65;;
82630;SDS011;72301;52.376;9.738;2023-11-19T13:25:24;10.00;;;2.35;;
82630;SDS011;72301;52.376;9.738;2023-11-19T13:27:50;13.73;;;3.22;;
82630;SDS011;72301;52.376;9.738;2023-11-19T13:30:16;11.52;;;2.78;;
82630;SDS011;72301;52.376;9.738;2023-11-19T13:32:44;12.20;;;2.20;;
82630;SDS011;72301;52.376;9.738;2023-11-19T13:35:14;11.27;;;2.78;;
82630;SDS011;72301;52.376;9.738;2023-11-19T13:37:40;10.18;;;2.75;;
82630;SDS011;72301;52.376;9.738;2023-11-19T13:40:09;10.57;;;2.20;;
82630;SDS011;72301;52.376;9.738;2023-11-19T13:42:36;10.30;;;2.38;;
82630;SDS011;72301;52.376;9.738;2023-11-19T13:47:33;10.55;;;2.20;;
82630;SDS011;72301;52.376;9.738;2023-11-19T13:49:59;9.13;;;1.93;;
82630;SDS011;72301;52.376;9.738;2023-11-19T13:52:24;9.30;;;2.22;;
82630;SDS011;72301;52.376;9.738;2023-11-19T13:54:49;10.13;;;2.22;;
82630;SDS011;72301;52.376;9.738;2023-11-19T13:57:15;11.40;;;2.35;;
82630;SDS011;72301;52.376;9.738;2023-11-19T13:59:40;11.25;;;2.25;;
82630;SDS011;72301;52.376;9.738;2023-11-19T14:02:09;12.88;;;2.30;;
82630;SDS011;72301;52.376;9.738;2023-11-19T14:04:34;11.13;;;2.25;;
82630;SDS011;72301;52.376;9.738;2023-11-19T14:07:00;10.23;;;2.10;;
82630;SDS011;72301;52.376;9.738;2023-11-19T14:09:25;10.52;;;2.17;;
82630;SDS011;72301;52.376;9.738;2023-11-19T14:11:51;10.52;;;2.45;;
82630;SDS011;72301;52.376;9.738;2023-11-19T14:14:19;10.33;;;2.30;;
82630;SDS011;72301;52.376;9.738;2023-11-19T14:16:45;10.68;;;2.47;;
82630;SDS011;72301;52.376;9.738;2023-11-19T14:19:10;9.18;;;2.08;;
82630;SDS011;72301;52.376;9.738;2023-11-19T14:21:36;7.20;;;1.67;;
82630;SDS011;72301;52.376;9.738;2023-11-19T14:24:01;8.43;;;2.03;;
82630;SDS011;72301;52.376;9.738;2023-11-19T14:26:27;11.98;;;2.20;;
82630;SDS011;72301;52.376;9.738;2023-11-19T14:28:52;8.20;;;2.57;;
82630;SDS011;72301;52.376;9.738;2023-11-19T14:31:17;10.57;;;2.47;;
82630;SDS011;72301;52.376;9.738;2023-11-19T14:33:43;8.87;;;1.83;;
82630;SDS011;72301;52.376;9.738;2023-11-19T14:36:08;10.23;;;3.17;;
82630;SDS011;72301;52.376;9.738;2023-11-19T14:38:33;9.73;;;2.05;;
82630;SDS011;72301;52.376;9.738;2023-11-19T14:40:59;10.70;;;2.25;;
82630;SDS011;72301;52.376;9.738;2023-11-19T14:43:25;9.20;;;2.42;;
82630;SDS011;72301;52.376;9.738;2023-11-19T14:45:54;8.25;;;1.70;;
82630;SDS011;72301;52.376;9.738;2023-11-19T14:48:19;8.50;;;2.35;;
82630;SDS011;72301;52.376;9.738;2023-11-19T14:50:47;10.80;;;2.20;;
82630;SDS011;72301;52.376;9.738;2023-11-19T14:53:13;8.73;;;1.65;;
82630;SDS011;72301;52.376;9.738;2023-11-19T14:55:38;10.20;;;1.95;;
82630;SDS011;72301;52.376;9.738;2023-11-19T14:58:03;8.07;;;2.10;;
82630;SDS011;72301;52.376;9.738;2023-11-19T15:00:29;8.80;;;3.13;;
82630;SDS011;72301;52.376;9.738;2023-11-19T15:02:54;12.40;;;2.47;;
82630;SDS011;72301;52.376;9.738;2023-11-19T15:05:20;10.52;;;2.38;;
82630;SDS011;72301;52.376;9.738;2023-11-19T15:07:46;7.47;;;1.88;;
82630;SDS011;72301;52.376;9.738;2023-11-19T15:10:13;9.48;;;2.45;;
82630;SDS011;72301;52.376;9.738;2023-11-19T15:12:38;8.33;;;2.10;;
82630;SDS011;72301;52.376;9.738;2023-11-19T15:15:10;8.32;;;2.20;;
82630;SDS011;72301;52.376;9.738;2023-11-19T15:17:38;5.70;;;1.67;;
82630;SDS011;72301;52.376;9.738;2023-11-19T15:20:04;10.98;;;2.20;;
82630;SDS011;72301;52.376;9.738;2023-11-19T15:22:29;7.93;;;1.65;;
82630;SDS011;72301;52.376;9.738;2023-11-19T15:24:55;8.57;;;2.00;;
82630;SDS011;72301;52.376;9.738;2023-11-19T15:27:20;7.47;;;2.03;;
82630;SDS011;72301;52.376;9.738;2023-11-19T15:29:45;8.10;;;1.85;;
82630;SDS011;72301;52.376;9.738;2023-11-19T15:32:11;8.70;;;1.92;;
82630;SDS011;72301;52.376;9.738;2023-11-19T15:34:36;7.93;;;1.70;;
82630;SDS011;72301;52.376;9.738;2023-11-19T15:37:03;8.75;;;1.85;;
82630;SDS011;72301;52.376;9.738;2023-11-19T15:39:29;8.20;;;2.08;;
82630;SDS011;72301;52.376;9.738;2023-11-19T15:41:54;7.60;;;1.77;;
82630;SDS011;72301;52.376;9.738;2023-11-19T15:44:20;8.80;;;1.88;;
82630;SDS011;72301;52.376;9.738;2023-11-19T15:46:45;8.17;;;1.80;;
82630;SDS011;72301;52.376;9.738;2023-11-19T15:49:11;8.20;;;2.10;;
82630;SDS011;72301;52.376;9.738;2023-11-19T15:51:36;9.67;;;2.20;;
82630;SDS011;72301;52.376;9.738;2023-11-19T15:54:04;7.95;;;1.90;;
82630;SDS011;72301;52.376;9.738;2023-11-19T15:56:30;7.18;;;2.53;;
82630;SDS011;72301;52.376;9.738;2023-11-19T15:58:56;8.13;;;2.08;;
82630;SDS011;72301;52.376;9.738;2023-11-19T16:01:22;5.88;;;1.30;;
82630;SDS011;72301;52.376;9.738;2023-11-19T16:03:47;8.97;;;2.33;;
82630;SDS011;72301;52.376;9.738;2023-11-19T16:06:12;8.82;;;2.08;;
82630;SDS011;72301;52.376;9.738;2023-11-19T16:08:38;7.75;;;1.92;;
82630;SDS011;72301;52.376;9.738;2023-11-19T16:14:38;7.05;;;2.08;;